sensor_id;sensor_type;location;lat;lon;timestamp;pressure;altitude;pressure_sealevel;temperature;humidity
18784;BME280;9520;50.954;6.968;2022-09-09T00:00:09;100302.09;;;26.40;42.58
18784;BME280;9520;50.954;6.968;2022-09-09T00:00:37;100295.78;;;26.30;42.61
18784;BME280;9520;50.954;6.968;2022-09-09T00:01:08;100299.78;;;26.36;42.84
18784;BME280;9520;50.954;6.968;2022-09-09T00:01:37;100294.38;;;26.36;42.25
18784;BME280;9520;50.954;6.968;2022-09-09T00:02:08;100303.63;;;26.33;42.49
18784;BME280;9520;50.954;6.968;2022-09-09T00:02:32;100294.63;;;26.12;42.87
18784;BME280;9520;50.954;6.968;2022-09-09T00:03:01;100298.78;;;26.16;42.62
18784;BME280;9520;50.954;6.968;2022-09-09T00:03:26;100296.69;;;26.19;42.75
18784;BME280;9520;50.954;6.968;2022-09-09T00:03:53;100287.56;;;26.20;42.70
18784;BME280;9520;50.954;6.968;2022-09-09T00:04:25;100288.44;;;26.21;42.68
18784;BME280;9520;50.954;6.968;2022-09-09T00:04:57;100291.03;;;26.23;42.67
18784;BME280;9520;50.954;6.968;2022-09-09T00:05:29;100286.22;;;26.26;42.30
18784;BME280;9520;50.954;6.968;2022-09-09T00:05:59;100285.97;;;26.29;42.58
18784;BME280;9520;50.954;6.968;2022-09-09T00:06:27;100291.63;;;26.26;42.33
18784;BME280;9520;50.954;6.968;2022-09-09T00:06:57;100288.06;;;26.26;42.24
18784;BME280;9520;50.954;6.968;2022-09-09T00:07:25;100284.78;;;26.22;42.12
18784;BME280;9520;50.954;6.968;2022-09-09T00:07:51;100282.16;;;26.20;42.16
18784;BME280;9520;50.954;6.968;2022-09-09T00:08:18;100288.06;;;26.26;42.28
18784;BME280;9520;50.954;6.968;2022-09-09T00:08:47;100279.44;;;26.20;42.36
18784;BME280;9520;50.954;6.968;2022-09-09T00:09:17;100278.25;;;26.25;42.44
18784;BME280;9520;50.954;6.968;2022-09-09T00:09:46;100280.09;;;26.24;43.11
18784;BME280;9520;50.954;6.968;2022-09-09T00:10:17;100284.50;;;26.25;42.87
18784;BME280;9520;50.954;6.968;2022-09-09T00:10:42;100284.50;;;26.25;42.58
18784;BME280;9520;50.954;6.968;2022-09-09T00:11:04;100276.75;;;26.20;42.92
18784;BME280;9520;50.954;6.968;2022-09-09T00:11:29;100280.59;;;26.18;43.01
18784;BME280;9520;50.954;6.968;2022-09-09T00:11:59;100269.03;;;26.16;42.70
18784;BME280;9520;50.954;6.968;2022-09-09T00:12:32;100270.41;;;26.10;43.13
18784;BME280;9520;50.954;6.968;2022-09-09T00:12:57;100274.44;;;26.16;42.88
18784;BME280;9520;50.954;6.968;2022-09-09T00:13:25;100263.16;;;26.11;42.89
18784;BME280;9520;50.954;6.968;2022-09-09T00:13:52;100275.88;;;26.20;43.16
18784;BME280;9520;50.954;6.968;2022-09-09T00:14:22;100275.06;;;26.19;43.03
18784;BME280;9520;50.954;6.968;2022-09-09T00:14:50;100273.47;;;26.17;43.26
18784;BME280;9520;50.954;6.968;2022-09-09T00:15:14;100277.53;;;26.23;42.98
18784;BME280;9520;50.954;6.968;2022-09-09T00:15:45;100272.13;;;26.23;43.04
18784;BME280;9520;50.954;6.968;2022-09-09T00:16:12;100270.16;;;26.25;42.83
18784;BME280;9520;50.954;6.968;2022-09-09T00:16:39;100270.28;;;26.23;43.13
18784;BME280;9520;50.954;6.968;2022-09-09T00:17:09;100270.00;;;26.26;43.68
18784;BME280;9520;50.954;6.968;2022-09-09T00:17:38;100255.03;;;26.22;43.54
18784;BME280;9520;50.954;6.968;2022-09-09T00:18:03;100245.44;;;26.18;43.32
18784;BME280;9520;50.954;6.968;2022-09-09T00:18:38;100268.72;;;26.30;43.42
18784;BME280;9520;50.954;6.968;2022-09-09T00:19:07;100254.75;;;26.25;42.87
18784;BME280;9520;50.954;6.968;2022-09-09T00:19:33;100274.00;;;26.32;43.04
18784;BME280;9520;50.954;6.968;2022-09-09T00:20:01;100272.16;;;26.32;42.68
18784;BME280;9520;50.954;6.968;2022-09-09T00:20:30;100275.00;;;26.31;42.83
18784;BME280;9520;50.954;6.968;2022-09-09T00:20:58;100269.47;;;26.32;42.70
18784;BME280;9520;50.954;6.968;2022-09-09T00:21:35;100272.28;;;26.31;42.86
18784;BME280;9520;50.954;6.968;2022-09-09T00:22:23;100279.41;;;26.32;42.36
18784;BME280;9520;50.954;6.968;2022-09-09T00:23:08;100274.00;;;26.32;42.90
18784;BME280;9520;50.954;6.968;2022-09-09T00:23:41;100274.53;;;26.26;42.26
18784;BME280;9520;50.954;6.968;2022-09-09T00:24:55;100272.13;;;26.23;43.23
18784;BME280;9520;50.954;6.968;2022-09-09T00:25:34;100273.94;;;26.22;42.98
18784;BME280;9520;50.954;6.968;2022-09-09T00:26:20;100274.03;;;26.20;43.19
18784;BME280;9520;50.954;6.968;2022-09-09T00:27:08;100266.94;;;26.19;42.77
18784;BME280;9520;50.954;6.968;2022-09-09T00:27:47;100260.81;;;26.17;42.88
18784;BME280;9520;50.954;6.968;2022-09-09T00:28:16;100270.47;;;26.20;43.08
18784;BME280;9520;50.954;6.968;2022-09-09T00:29:09;100264.25;;;26.19;43.14
18784;BME280;9520;50.954;6.968;2022-09-09T00:29:51;100266.34;;;26.16;43.11
18784;BME280;9520;50.954;6.968;2022-09-09T00:31:01;100269.59;;;26.10;42.87
18784;BME280;9520;50.954;6.968;2022-09-09T00:31:31;100270.69;;;26.07;43.00
18784;BME280;9520;50.954;6.968;2022-09-09T00:31:54;100274.25;;;26.08;43.01
18784;BME280;9520;50.954;6.968;2022-09-09T00:32:20;100278.22;;;26.04;43.22
18784;BME280;9520;50.954;6.968;2022-09-09T00:32:43;100273.53;;;26.06;43.21
18784;BME280;9520;50.954;6.968;2022-09-09T00:33:10;100272.66;;;26.05;42.79
18784;BME280;9520;50.954;6.968;2022-09-09T00:33:34;100272.53;;;26.07;43.03
18784;BME280;9520;50.954;6.968;2022-09-09T00:34:00;100269.84;;;26.07;43.14
18784;BME280;9520;50.954;6.968;2022-09-09T00:34:25;100279.53;;;26.09;43.05
18784;BME280;9520;50.954;6.968;2022-09-09T00:34:52;100276.56;;;26.12;42.85
18784;BME280;9520;50.954;6.968;2022-09-09T00:35:18;100278.41;;;26.12;43.55
18784;BME280;9520;50.954;6.968;2022-09-09T00:35:45;100280.13;;;26.13;42.98
18784;BME280;9520;50.954;6.968;2022-09-09T00:36:12;100274.72;;;26.13;43.02
18784;BME280;9520;50.954;6.968;2022-09-09T00:36:37;100267.88;;;26.09;43.33
18784;BME280;9520;50.954;6.968;2022-09-09T00:36:59;100274.59;;;26.14;42.96
18784;BME280;9520;50.954;6.968;2022-09-09T00:37:21;100281.00;;;26.13;42.89
18784;BME280;9520;50.954;6.968;2022-09-09T00:37:46;100272.88;;;26.13;43.25
18784;BME280;9520;50.954;6.968;2022-09-09T00:38:14;100267.59;;;26.12;43.22
18784;BME280;9520;50.954;6.968;2022-09-09T00:38:41;100272.72;;;26.15;43.38
18784;BME280;9520;50.954;6.968;2022-09-09T00:39:04;100284.16;;;26.18;43.37
18784;BME280;9520;50.954;6.968;2022-09-09T00:39:31;100282.84;;;26.13;43.00
18784;BME280;9520;50.954;6.968;2022-09-09T00:39:59;100280.13;;;26.13;42.85
18784;BME280;9520;50.954;6.968;2022-09-09T00:40:26;100280.59;;;26.18;43.10
18784;BME280;9520;50.954;6.968;2022-09-09T00:40:52;100279.72;;;26.17;43.10
18784;BME280;9520;50.954;6.968;2022-09-09T00:41:18;100278.13;;;26.15;43.24
18784;BME280;9520;50.954;6.968;2022-09-09T00:42:05;100263.44;;;26.08;42.74
18784;BME280;9520;50.954;6.968;2022-09-09T00:42:51;100281.69;;;26.15;42.98
18784;BME280;9520;50.954;6.968;2022-09-09T00:43:29;100278.13;;;26.15;43.01
18784;BME280;9520;50.954;6.968;2022-09-09T00:44:19;100278.75;;;26.18;42.80
18784;BME280;9520;50.954;6.968;2022-09-09T00:45:15;100261.84;;;26.05;42.70
18784;BME280;9520;50.954;6.968;2022-09-09T00:47:10;100269.13;;;26.05;42.32
18784;BME280;9520;50.954;6.968;2022-09-09T00:48:05;100269.25;;;26.03;42.26
18784;BME280;9520;50.954;6.968;2022-09-09T00:48:52;100272.00;;;25.92;42.65
18784;BME280;9520;50.954;6.968;2022-09-09T00:49:33;100272.59;;;25.96;42.55
18784;BME280;9520;50.954;6.968;2022-09-09T00:50:43;100264.41;;;25.86;42.46
18784;BME280;9520;50.954;6.968;2022-09-09T00:51:17;100268.72;;;25.89;42.23
18784;BME280;9520;50.954;6.968;2022-09-09T00:52:01;100272.88;;;25.93;42.46
18784;BME280;9520;50.954;6.968;2022-09-09T00:53:14;100263.81;;;25.83;42.04
18784;BME280;9520;50.954;6.968;2022-09-09T00:54:16;100262.50;;;25.77;42.45
18784;BME280;9520;50.954;6.968;2022-09-09T00:55:16;100252.81;;;25.74;42.45
18784;BME280;9520;50.954;6.968;2022-09-09T00:55:54;100272.41;;;25.88;42.72
18784;BME280;9520;50.954;6.968;2022-09-09T00:56:56;100268.84;;;25.87;42.35
18784;BME280;9520;50.954;6.968;2022-09-09T00:57:51;100268.38;;;25.82;42.20
18784;BME280;9520;50.954;6.968;2022-09-09T00:58:47;100279.66;;;25.87;42.40
18784;BME280;9520;50.954;6.968;2022-09-09T00:59:28;100275.31;;;25.75;42.08
18784;BME280;9520;50.954;6.968;2022-09-09T01:00:35;100276.59;;;25.80;42.41
18784;BME280;9520;50.954;6.968;2022-09-09T01:01:21;100281.50;;;25.87;42.28
18784;BME280;9520;50.954;6.968;2022-09-09T01:01:50;100272.28;;;25.89;42.18
18784;BME280;9520;50.954;6.968;2022-09-09T01:02:28;100278.41;;;25.91;41.99
18784;BME280;9520;50.954;6.968;2022-09-09T01:03:18;100280.69;;;25.96;42.41
18784;BME280;9520;50.954;6.968;2022-09-09T01:04:00;100278.84;;;25.96;42.41
18784;BME280;9520;50.954;6.968;2022-09-09T01:04:38;100272.00;;;25.92;41.84
18784;BME280;9520;50.954;6.968;2022-09-09T01:05:33;100278.00;;;25.96;41.60
18784;BME280;9520;50.954;6.968;2022-09-09T01:06:11;100280.59;;;25.97;41.87
18784;BME280;9520;50.954;6.968;2022-09-09T01:06:54;100274.31;;;25.97;41.85
18784;BME280;9520;50.954;6.968;2022-09-09T01:07:34;100275.38;;;25.85;41.83
18784;BME280;9520;50.954;6.968;2022-09-09T01:08:18;100277.81;;;25.88;42.04
18784;BME280;9520;50.954;6.968;2022-09-09T01:09:38;100274.38;;;25.86;41.51
18784;BME280;9520;50.954;6.968;2022-09-09T01:10:09;100284.72;;;25.80;41.76
18784;BME280;9520;50.954;6.968;2022-09-09T01:10:43;100281.88;;;25.50;42.31
18784;BME280;9520;50.954;6.968;2022-09-09T01:11:14;100286.94;;;25.55;42.37
18784;BME280;9520;50.954;6.968;2022-09-09T01:11:49;100282.38;;;25.55;42.55
18784;BME280;9520;50.954;6.968;2022-09-09T01:12:15;100275.47;;;25.51;42.34
18784;BME280;9520;50.954;6.968;2022-09-09T01:12:42;100276.59;;;25.49;42.23
18784;BME280;9520;50.954;6.968;2022-09-09T01:13:14;100284.56;;;25.50;42.33
18784;BME280;9520;50.954;6.968;2022-09-09T01:13:38;100277.44;;;25.49;42.25
18784;BME280;9520;50.954;6.968;2022-09-09T01:14:12;100275.72;;;25.48;42.16
18784;BME280;9520;50.954;6.968;2022-09-09T01:14:42;100271.81;;;25.41;42.58
18784;BME280;9520;50.954;6.968;2022-09-09T01:15:09;100274.78;;;25.38;43.05
18784;BME280;9520;50.954;6.968;2022-09-09T01:15:37;100271.47;;;25.46;42.80
18784;BME280;9520;50.954;6.968;2022-09-09T01:16:01;100277.31;;;25.51;42.80
18784;BME280;9520;50.954;6.968;2022-09-09T01:16:28;100278.91;;;25.53;42.92
18784;BME280;9520;50.954;6.968;2022-09-09T01:16:54;100283.09;;;25.57;42.66
18784;BME280;9520;50.954;6.968;2022-09-09T01:17:21;100271.31;;;25.58;42.62
18784;BME280;9520;50.954;6.968;2022-09-09T01:18:04;100277.19;;;25.63;42.56
18784;BME280;9520;50.954;6.968;2022-09-09T01:18:33;100279.88;;;25.63;42.28
18784;BME280;9520;50.954;6.968;2022-09-09T01:19:03;100281.47;;;25.66;42.35
18784;BME280;9520;50.954;6.968;2022-09-09T01:19:39;100282.31;;;25.66;42.04
18784;BME280;9520;50.954;6.968;2022-09-09T01:20:21;100266.38;;;25.63;42.00
18784;BME280;9520;50.954;6.968;2022-09-09T01:21:22;100272.97;;;25.70;42.56
18784;BME280;9520;50.954;6.968;2022-09-09T01:22:19;100269.03;;;25.74;42.53
18784;BME280;9520;50.954;6.968;2022-09-09T01:22:59;100269.91;;;25.75;42.57
18784;BME280;9520;50.954;6.968;2022-09-09T01:24:34;100271.97;;;25.71;42.74
18784;BME280;9520;50.954;6.968;2022-09-09T01:25:24;100270.25;;;25.70;42.87
18784;BME280;9520;50.954;6.968;2022-09-09T01:26:28;100270.81;;;25.64;42.87
18784;BME280;9520;50.954;6.968;2022-09-09T01:27:01;100276.59;;;25.60;42.96
18784;BME280;9520;50.954;6.968;2022-09-09T01:27:55;100273.97;;;25.69;42.54
18784;BME280;9520;50.954;6.968;2022-09-09T01:28:28;100275.66;;;25.70;42.96
18784;BME280;9520;50.954;6.968;2022-09-09T01:29:00;100277.94;;;25.65;42.85
18784;BME280;9520;50.954;6.968;2022-09-09T01:29:29;100273.34;;;25.66;42.54
18784;BME280;9520;50.954;6.968;2022-09-09T01:30:14;100263.69;;;25.63;42.85
18784;BME280;9520;50.954;6.968;2022-09-09T01:30:50;100274.22;;;25.66;43.09
18784;BME280;9520;50.954;6.968;2022-09-09T01:31:23;100273.03;;;25.59;42.96
18784;BME280;9520;50.954;6.968;2022-09-09T01:32:44;100274.84;;;25.70;43.25
18784;BME280;9520;50.954;6.968;2022-09-09T01:33:13;100286.16;;;25.64;42.78
18784;BME280;9520;50.954;6.968;2022-09-09T01:33:44;100273.22;;;25.67;43.08
18784;BME280;9520;50.954;6.968;2022-09-09T01:34:15;100267.72;;;25.69;43.07
18784;BME280;9520;50.954;6.968;2022-09-09T01:34:45;100270.41;;;25.69;43.20
18784;BME280;9520;50.954;6.968;2022-09-09T01:35:32;100270.25;;;25.70;43.16
18784;BME280;9520;50.954;6.968;2022-09-09T01:36:05;100281.53;;;25.75;42.69
18784;BME280;9520;50.954;6.968;2022-09-09T01:36:41;100271.28;;;25.69;42.78
18784;BME280;9520;50.954;6.968;2022-09-09T01:37:13;100272.13;;;25.70;42.83
18784;BME280;9520;50.954;6.968;2022-09-09T01:37:42;100264.63;;;25.73;42.58
18784;BME280;9520;50.954;6.968;2022-09-09T01:38:07;100268.19;;;25.74;42.77
18784;BME280;9520;50.954;6.968;2022-09-09T01:38:37;100267.03;;;25.76;42.80
18784;BME280;9520;50.954;6.968;2022-09-09T01:39:16;100256.91;;;25.69;42.85
18784;BME280;9520;50.954;6.968;2022-09-09T01:39:46;100261.41;;;25.79;42.88
18784;BME280;9520;50.954;6.968;2022-09-09T01:40:16;100266.53;;;25.83;43.06
18784;BME280;9520;50.954;6.968;2022-09-09T01:40:45;100267.44;;;25.72;42.69
18784;BME280;9520;50.954;6.968;2022-09-09T01:41:12;100267.91;;;25.77;42.68
18784;BME280;9520;50.954;6.968;2022-09-09T01:41:55;100273.19;;;25.78;43.04
18784;BME280;9520;50.954;6.968;2022-09-09T01:42:24;100264.22;;;25.78;42.57
18784;BME280;9520;50.954;6.968;2022-09-09T01:42:47;100263.38;;;25.77;42.98
18784;BME280;9520;50.954;6.968;2022-09-09T01:43:27;100264.34;;;25.76;43.22
18784;BME280;9520;50.954;6.968;2022-09-09T01:43:57;100268.75;;;25.77;42.70
18784;BME280;9520;50.954;6.968;2022-09-09T01:44:23;100265.88;;;25.69;42.90
18784;BME280;9520;50.954;6.968;2022-09-09T01:45:04;100267.56;;;25.70;42.88
18784;BME280;9520;50.954;6.968;2022-09-09T01:45:44;100268.56;;;25.69;43.41
18784;BME280;9520;50.954;6.968;2022-09-09T01:46:22;100268.41;;;25.71;43.27
18784;BME280;9520;50.954;6.968;2022-09-09T01:47:09;100273.22;;;25.67;43.25
18784;BME280;9520;50.954;6.968;2022-09-09T01:48:03;100275.53;;;25.72;43.30
18784;BME280;9520;50.954;6.968;2022-09-09T01:48:58;100275.31;;;25.75;43.39
18784;BME280;9520;50.954;6.968;2022-09-09T01:49:39;100280.72;;;25.75;43.36
18784;BME280;9520;50.954;6.968;2022-09-09T01:50:16;100273.59;;;25.74;43.19
18784;BME280;9520;50.954;6.968;2022-09-09T01:50:38;100269.91;;;25.75;43.37
18784;BME280;9520;50.954;6.968;2022-09-09T01:51:01;100278.72;;;25.77;43.43
18784;BME280;9520;50.954;6.968;2022-09-09T01:51:24;100267.91;;;25.77;43.49
18784;BME280;9520;50.954;6.968;2022-09-09T01:51:49;100263.63;;;25.74;43.19
18784;BME280;9520;50.954;6.968;2022-09-09T01:52:12;100280.16;;;25.81;43.42
18784;BME280;9520;50.954;6.968;2022-09-09T01:52:35;100275.63;;;25.82;43.54
18784;BME280;9520;50.954;6.968;2022-09-09T01:53:01;100277.63;;;25.79;43.57
18784;BME280;9520;50.954;6.968;2022-09-09T01:53:25;100281.03;;;25.82;43.61
18784;BME280;9520;50.954;6.968;2022-09-09T01:53:48;100276.75;;;25.79;43.00
18784;BME280;9520;50.954;6.968;2022-09-09T01:54:10;100280.03;;;25.83;42.95
18784;BME280;9520;50.954;6.968;2022-09-09T01:54:33;100276.47;;;25.82;43.34
18784;BME280;9520;50.954;6.968;2022-09-09T01:55:01;100277.34;;;25.83;43.41
18784;BME280;9520;50.954;6.968;2022-09-09T01:55:30;100280.03;;;25.83;43.35
18784;BME280;9520;50.954;6.968;2022-09-09T01:56:02;100276.38;;;25.84;43.38
18784;BME280;9520;50.954;6.968;2022-09-09T01:56:39;100281.75;;;25.84;43.39
18784;BME280;9520;50.954;6.968;2022-09-09T01:57:10;100278.78;;;25.87;43.58
18784;BME280;9520;50.954;6.968;2022-09-09T01:57:40;100270.69;;;25.87;43.20
18784;BME280;9520;50.954;6.968;2022-09-09T01:58:15;100276.81;;;25.89;43.17
18784;BME280;9520;50.954;6.968;2022-09-09T01:58:55;100277.69;;;25.89;43.32
18784;BME280;9520;50.954;6.968;2022-09-09T01:59:27;100287.63;;;25.89;42.67
18784;BME280;9520;50.954;6.968;2022-09-09T02:00:00;100279.78;;;25.86;42.77
18784;BME280;9520;50.954;6.968;2022-09-09T02:00:37;100282.47;;;25.86;42.95
18784;BME280;9520;50.954;6.968;2022-09-09T02:01:08;100285.91;;;25.88;43.49
18784;BME280;9520;50.954;6.968;2022-09-09T02:01:45;100285.91;;;25.88;43.13
18784;BME280;9520;50.954;6.968;2022-09-09T02:02:15;100287.88;;;25.86;42.97
18784;BME280;9520;50.954;6.968;2022-09-09T02:02:53;100282.00;;;25.80;43.25
18784;BME280;9520;50.954;6.968;2022-09-09T02:03:28;100277.38;;;25.71;43.04
18784;BME280;9520;50.954;6.968;2022-09-09T02:04:04;100283.34;;;25.54;43.35
18784;BME280;9520;50.954;6.968;2022-09-09T02:04:36;100283.09;;;25.57;43.51
18784;BME280;9520;50.954;6.968;2022-09-09T02:05:11;100282.84;;;25.60;43.47
18784;BME280;9520;50.954;6.968;2022-09-09T02:05:39;100267.75;;;25.58;43.68
18784;BME280;9520;50.954;6.968;2022-09-09T02:06:24;100286.03;;;25.65;43.96
18784;BME280;9520;50.954;6.968;2022-09-09T02:06:54;100280.63;;;25.65;43.60
18784;BME280;9520;50.954;6.968;2022-09-09T02:07:31;100281.47;;;25.66;43.35
18784;BME280;9520;50.954;6.968;2022-09-09T02:08:05;100278.53;;;25.69;43.33
18784;BME280;9520;50.954;6.968;2022-09-09T02:08:42;100278.16;;;25.62;43.71
18784;BME280;9520;50.954;6.968;2022-09-09T02:09:06;100283.69;;;25.61;43.74
18784;BME280;9520;50.954;6.968;2022-09-09T02:09:29;100284.81;;;25.58;43.46
18784;BME280;9520;50.954;6.968;2022-09-09T02:09:58;100269.94;;;25.53;43.41
18784;BME280;9520;50.954;6.968;2022-09-09T02:10:24;100278.16;;;25.51;43.47
18784;BME280;9520;50.954;6.968;2022-09-09T02:11:05;100286.78;;;25.56;43.84
18784;BME280;9520;50.954;6.968;2022-09-09T02:11:37;100284.69;;;25.60;43.67
18784;BME280;9520;50.954;6.968;2022-09-09T02:12:20;100266.25;;;25.54;44.06
18784;BME280;9520;50.954;6.968;2022-09-09T02:13:03;100280.41;;;25.57;43.86
18784;BME280;9520;50.954;6.968;2022-09-09T02:13:51;100279.69;;;25.55;43.46
18784;BME280;9520;50.954;6.968;2022-09-09T02:14:36;100280.28;;;25.59;44.04
18784;BME280;9520;50.954;6.968;2022-09-09T02:15:13;100282.00;;;25.60;43.37
18784;BME280;9520;50.954;6.968;2022-09-09T02:15:49;100280.75;;;25.64;43.75
18784;BME280;9520;50.954;6.968;2022-09-09T02:16:23;100273.50;;;25.64;43.51
18784;BME280;9520;50.954;6.968;2022-09-09T02:17:03;100273.97;;;25.69;43.18
18784;BME280;9520;50.954;6.968;2022-09-09T02:18:08;100277.53;;;25.70;43.51
18784;BME280;9520;50.954;6.968;2022-09-09T02:18:35;100271.38;;;25.68;43.63
18784;BME280;9520;50.954;6.968;2022-09-09T02:19:01;100271.97;;;25.71;43.37
18784;BME280;9520;50.954;6.968;2022-09-09T02:19:37;100270.53;;;25.67;43.11
18784;BME280;9520;50.954;6.968;2022-09-09T02:20:14;100274.44;;;25.74;43.24
18784;BME280;9520;50.954;6.968;2022-09-09T02:20:43;100273.69;;;25.72;43.42
18784;BME280;9520;50.954;6.968;2022-09-09T02:21:07;100269.03;;;25.74;43.83
18784;BME280;9520;50.954;6.968;2022-09-09T02:21:30;100277.00;;;25.76;43.68
18784;BME280;9520;50.954;6.968;2022-09-09T02:21:54;100272.31;;;25.78;43.74
18784;BME280;9520;50.954;6.968;2022-09-09T02:22:19;100275.91;;;25.78;43.30
18784;BME280;9520;50.954;6.968;2022-09-09T02:22:48;100277.31;;;25.62;43.42
18784;BME280;9520;50.954;6.968;2022-09-09T02:23:12;100274.38;;;25.65;44.09
18784;BME280;9520;50.954;6.968;2022-09-09T02:23:39;100278.38;;;25.70;43.85
18784;BME280;9520;50.954;6.968;2022-09-09T02:24:07;100275.53;;;25.72;43.83
18784;BME280;9520;50.954;6.968;2022-09-09T02:24:39;100268.69;;;25.68;43.84
18784;BME280;9520;50.954;6.968;2022-09-09T02:25:18;100270.50;;;25.78;44.06
18784;BME280;9520;50.954;6.968;2022-09-09T02:25:42;100276.75;;;25.79;43.76
18784;BME280;9520;50.954;6.968;2022-09-09T02:26:15;100278.47;;;25.80;43.21
18784;BME280;9520;50.954;6.968;2022-09-09T02:26:47;100273.81;;;25.71;43.28
18784;BME280;9520;50.954;6.968;2022-09-09T02:27:12;100274.09;;;25.68;43.52
18784;BME280;9520;50.954;6.968;2022-09-09T02:27:36;100259.53;;;25.59;43.79
18784;BME280;9520;50.954;6.968;2022-09-09T02:27:58;100276.41;;;25.72;43.78
18784;BME280;9520;50.954;6.968;2022-09-09T02:28:21;100271.75;;;25.74;43.78
18784;BME280;9520;50.954;6.968;2022-09-09T02:28:46;100276.13;;;25.75;44.03
18784;BME280;9520;50.954;6.968;2022-09-09T02:29:13;100276.88;;;25.77;44.05
18784;BME280;9520;50.954;6.968;2022-09-09T02:29:40;100275.03;;;25.78;43.83
18784;BME280;9520;50.954;6.968;2022-09-09T02:30:04;100267.91;;;25.77;43.84
18784;BME280;9520;50.954;6.968;2022-09-09T02:30:32;100272.06;;;25.81;44.24
18784;BME280;9520;50.954;6.968;2022-09-09T02:30:55;100266.53;;;25.83;44.20
18784;BME280;9520;50.954;6.968;2022-09-09T02:31:26;100273.91;;;25.80;43.98
18784;BME280;9520;50.954;6.968;2022-09-09T02:31:55;100264.69;;;25.83;43.94
18784;BME280;9520;50.954;6.968;2022-09-09T02:32:24;100270.84;;;25.85;44.06
18784;BME280;9520;50.954;6.968;2022-09-09T02:32:48;100273.25;;;25.88;44.13
18784;BME280;9520;50.954;6.968;2022-09-09T02:33:12;100270.69;;;25.87;43.80
18784;BME280;9520;50.954;6.968;2022-09-09T02:33:42;100274.00;;;25.90;43.93
18784;BME280;9520;50.954;6.968;2022-09-09T02:34:07;100273.00;;;25.91;44.04
18784;BME280;9520;50.954;6.968;2022-09-09T02:34:35;100269.44;;;25.91;43.81
18784;BME280;9520;50.954;6.968;2022-09-09T02:35:02;100274.84;;;25.91;43.23
18784;BME280;9520;50.954;6.968;2022-09-09T02:35:26;100274.84;;;25.91;43.55
18784;BME280;9520;50.954;6.968;2022-09-09T02:35:51;100271.16;;;25.92;43.83
18784;BME280;9520;50.954;6.968;2022-09-09T02:36:17;100274.25;;;25.87;43.88
18784;BME280;9520;50.954;6.968;2022-09-09T02:36:42;100272.13;;;25.91;44.26
18784;BME280;9520;50.954;6.968;2022-09-09T02:37:09;100272.88;;;25.93;44.25
18784;BME280;9520;50.954;6.968;2022-09-09T02:37:36;100272.00;;;25.92;44.02
18784;BME280;9520;50.954;6.968;2022-09-09T02:38:00;100266.59;;;25.92;43.53
18784;BME280;9520;50.954;6.968;2022-09-09T02:38:26;100268.59;;;25.90;43.91
18784;BME280;9520;50.954;6.968;2022-09-09T02:38:57;100272.13;;;25.91;43.75
18784;BME280;9520;50.954;6.968;2022-09-09T02:39:22;100270.56;;;25.88;44.01
18784;BME280;9520;50.954;6.968;2022-09-09T02:39:46;100270.28;;;25.91;43.76
18784;BME280;9520;50.954;6.968;2022-09-09T02:40:13;100267.75;;;25.90;43.86
18784;BME280;9520;50.954;6.968;2022-09-09T02:40:40;100266.00;;;25.89;43.47
18784;BME280;9520;50.954;6.968;2022-09-09T02:41:03;100271.41;;;25.89;43.53
18784;BME280;9520;50.954;6.968;2022-09-09T02:41:31;100261.88;;;25.85;43.40
18784;BME280;9520;50.954;6.968;2022-09-09T02:41:53;100269.22;;;25.83;43.65
18784;BME280;9520;50.954;6.968;2022-09-09T02:42:23;100266.53;;;25.83;44.08
18784;BME280;9520;50.954;6.968;2022-09-09T02:42:48;100270.72;;;25.75;43.46
18784;BME280;9520;50.954;6.968;2022-09-09T02:43:14;100268.41;;;25.71;43.30
18784;BME280;9520;50.954;6.968;2022-09-09T02:43:38;100272.97;;;25.70;43.40
18784;BME280;9520;50.954;6.968;2022-09-09T02:44:05;100262.88;;;25.72;43.38
18784;BME280;9520;50.954;6.968;2022-09-09T02:44:30;100274.44;;;25.74;43.68
18784;BME280;9520;50.954;6.968;2022-09-09T02:44:54;100276.41;;;25.72;43.57
18784;BME280;9520;50.954;6.968;2022-09-09T02:45:19;100270.13;;;25.72;43.45
18784;BME280;9520;50.954;6.968;2022-09-09T02:45:50;100266.47;;;25.73;43.85
18784;BME280;9520;50.954;6.968;2022-09-09T02:46:24;100270.41;;;25.69;43.46
18784;BME280;9520;50.954;6.968;2022-09-09T02:47:07;100268.41;;;25.71;43.43
18784;BME280;9520;50.954;6.968;2022-09-09T02:47:34;100263.41;;;25.66;43.37
18784;BME280;9520;50.954;6.968;2022-09-09T02:48:09;100272.72;;;25.73;43.67
18784;BME280;9520;50.954;6.968;2022-09-09T02:48:43;100268.88;;;25.76;43.99
18784;BME280;9520;50.954;6.968;2022-09-09T02:49:10;100269.91;;;25.75;43.54
18784;BME280;9520;50.954;6.968;2022-09-09T02:49:43;100267.56;;;25.70;43.71
18784;BME280;9520;50.954;6.968;2022-09-09T02:50:16;100263.75;;;25.73;43.63
18784;BME280;9520;50.954;6.968;2022-09-09T02:50:43;100265.31;;;25.75;43.66
18784;BME280;9520;50.954;6.968;2022-09-09T02:51:16;100267.31;;;25.73;43.85
18784;BME280;9520;50.954;6.968;2022-09-09T02:51:48;100270.72;;;25.75;43.56
18784;BME280;9520;50.954;6.968;2022-09-09T02:52:14;100269.75;;;25.76;43.80
18784;BME280;9520;50.954;6.968;2022-09-09T02:52:45;100264.50;;;25.75;44.20
18784;BME280;9520;50.954;6.968;2022-09-09T02:53:16;100270.72;;;25.75;43.71
18784;BME280;9520;50.954;6.968;2022-09-09T02:53:43;100267.31;;;25.73;44.03
18784;BME280;9520;50.954;6.968;2022-09-09T02:54:12;100261.66;;;25.76;43.99
18784;BME280;9520;50.954;6.968;2022-09-09T02:54:38;100262.63;;;25.75;43.90
18784;BME280;9520;50.954;6.968;2022-09-09T02:55:08;100266.81;;;25.79;43.74
18784;BME280;9520;50.954;6.968;2022-09-09T02:55:38;100269.50;;;25.79;43.77
18784;BME280;9520;50.954;6.968;2022-09-09T02:56:04;100259.56;;;25.80;44.14
18784;BME280;9520;50.954;6.968;2022-09-09T02:56:35;100265.56;;;25.84;43.92
18784;BME280;9520;50.954;6.968;2022-09-09T02:57:03;100253.69;;;25.75;43.68
18784;BME280;9520;50.954;6.968;2022-09-09T02:57:32;100267.38;;;25.83;43.66
18784;BME280;9520;50.954;6.968;2022-09-09T02:57:59;100265.66;;;25.82;43.73